Mount Pleasant, SC (29464)

12:55 PM EDT on July 25, 2016 (GMT -0400)
BayView Acres | | Change Station

Elev 13 ft 32.80 °N, 79.89 °W | Updated 43 seconds ago

Clear
Clear
90.0 °F
Feels Like 100 °F
N
9.0
Wind Variable Wind from South
Gusts 0.0 mph

Today
High -- | Low -- °F
--% Chance of Precip.
Yesterday
High -- | Low -- °F
Precip. -- in
Pressure 30.09 in
Visibility 10.0 miles
Clouds Clear
Heat Index 100 °F
Dew Point 74 °F
Humidity 61%
Rainfall 0.00 in
Snow Depth Not available.
6:28 AM 8:22 PM
Waning Gibbous, 64% visible
METAR KJZI 251635Z AUTO 16009KT 10SM CLR 32/25 A3009 RMK AO2
Pressure 30.09 in
Visibility 10.0 miles
Clouds Clear
Heat Index 100 °F
Dew Point 74 °F
Humidity 61%
Rainfall 0.00 in
Snow Depth Not available.
6:28 AM 8:22 PM
Waning Gibbous, 64% visible
METAR KJZI 251635Z AUTO 16009KT 10SM CLR 32/25 A3009 RMK AO2
Record highs are possible for parts of the Northeast Monday and Tuesday, as parts of the central U.S. take a little breather from the worst of summer's dog day heat.

Expansive high pressure in the upper atmosphere will focus on parts of the East and West this week, sending heat indices well into the triple digits from the Mid-Atlantic states into the South.

10-Day Weather Forecast

Almanac

Astronomy

Jul. 25, 2016 Rise Set
Actual Time
Civil Twilight
Nautical Twilight
Astronomical Twilight
Moon
Length of Visible Light
Length of Day
Tomorrow will be .
, % of the Moon is Illuminated

Today's Extremes

State Highs State Lows

Community

WunderPhotos

Upload Photos

1,927,349 photos uploaded!

WunderBlog® & News

Nearby

Air Quality

  Air Quality AQ Index Pollutant
Not available.

Snow Depth

Station Depth Elevation

Earthquake Activity

City Distance Mag. Time & Date
Minimum magnitude displayed is 2.5.

Coastal Water Temperatures

Place Temperature

Stations

Nearby Weather Stations

Station Location Temp. Windchill Dew Point Humidity Wind Precip. Elev Updated Type
                   

Watches & Warnings

There are currently no watches in effect.